CheckWX is a tool to help pilots better visualize weather data.  It is not intended as a substitute for an official pre-flight weather briefing.

01:40:04 UTC

FMNA METAR
Arrachart Airport
Madagascar
Current

11 hours ago

FMNA 181500Z 14006KT 9999 FEW020 24/14 Q1016
Observed
Jun-18 @ 15:00 UTC
Wind
  • 140° at 6 KTS
Visibility
10,000+ meters
Flight Rules
VFR
Cloud Levels
  • Few at 2,000' AGL
Temperature
24°C / 75°F
Dewpoint
14°C / 57°F
Humidity
54%
Altimeter
30" Hg
Pressure
1015.92 hPa
Previous

12 hours ago

FMNA 181400Z 14010KT 9999 FEW20 25/19 Q1016
Observed
Jun-18 @ 14:00 UTC
Wind
  • 140° at 10 KTS
Visibility
10,000+ meters
Temperature
25°C / 77°F
Dewpoint
19°C / 66°F
Humidity
69%
Altimeter
30" Hg
Pressure
1015.92 hPa
Previous

13 hours ago

FMNA 181300Z 14012KT 0000 FEW020 27/16 Q1015
Observed
Jun-18 @ 13:00 UTC
Wind
  • 140° at 12 KTS
Visibility
0 meters
Flight Rules
LIFR
Cloud Levels
  • Few at 2,000' AGL
Temperature
27°C / 81°F
Dewpoint
16°C / 61°F
Heat Index
28°C / 82°F
Humidity
51%
Altimeter
29.97" Hg
Pressure
1014.92 hPa